createdAt,value
2023-05-04T00:02:06.972Z,15.23
2023-05-04T00:07:11.008Z,24.27
2023-05-04T00:12:15.137Z,25.17
2023-05-04T00:17:19.172Z,24.52
2023-05-04T00:22:23.277Z,36.28
2023-05-04T00:27:27.185Z,22.77
2023-05-04T00:32:31.734Z,28.80
2023-05-04T00:37:35.901Z,33.28
2023-05-04T00:42:39.803Z,34.60
2023-05-04T00:47:44.413Z,23.27
2023-05-04T00:52:51.749Z,17.10
2023-05-04T00:57:57.170Z,13.23
2023-05-04T01:03:01.262Z,15.55
2023-05-04T01:08:16.469Z,13.65
2023-05-04T01:13:23.125Z,13.95
2023-05-04T01:18:27.539Z,15.75
2023-05-04T01:23:31.536Z,12.27
2023-05-04T01:28:55.417Z,16.50
2023-05-04T01:33:59.544Z,11.88
2023-05-04T01:39:05.049Z,11.93
2023-05-04T01:44:10.208Z,14.52
2023-05-04T01:49:14.398Z,12.27
2023-05-04T01:54:18.405Z,15.43
2023-05-04T01:59:22.469Z,15.27
2023-05-04T02:04:26.583Z,16.65
2023-05-04T02:09:30.682Z,18.60
2023-05-04T02:14:34.868Z,17.10
2023-05-04T02:19:38.878Z,23.00
2023-05-04T02:24:45.158Z,32.55
2023-05-04T02:29:49.380Z,27.77
2023-05-04T02:34:54.362Z,24.38
2023-05-04T02:39:58.331Z,24.00
2023-05-04T02:45:02.610Z,22.55
2023-05-04T02:50:08.195Z,20.98
2023-05-04T02:55:12.450Z,21.38
2023-05-04T03:00:16.977Z,18.42
2023-05-04T03:05:21.177Z,22.17
2023-05-04T03:10:25.662Z,10.25
2023-05-04T03:15:29.605Z,6.57
2023-05-04T03:20:33.852Z,4.80
2023-05-04T03:25:38.421Z,5.93
2023-05-04T03:30:43.045Z,7.15
2023-05-04T03:35:48.441Z,8.13
2023-05-04T03:40:52.676Z,7.72
2023-05-04T03:45:56.842Z,9.40
2023-05-04T03:51:01.074Z,5.75
2023-05-04T03:56:05.475Z,7.22
2023-05-04T04:01:09.602Z,7.20
2023-05-04T04:06:15.255Z,5.75
2023-05-04T04:11:19.551Z,4.75
2023-05-04T04:16:23.765Z,3.80
2023-05-04T04:21:27.736Z,3.00
2023-05-04T04:26:31.840Z,4.15
2023-05-04T04:31:36.056Z,4.72
2023-05-04T04:36:41.170Z,3.92
2023-05-04T04:41:45.269Z,3.80
2023-05-04T04:46:50.155Z,2.83
2023-05-04T04:51:54.257Z,3.78
2023-05-04T04:56:58.123Z,2.75
2023-05-04T05:02:03.016Z,4.25
2023-05-04T05:07:09.554Z,4.05
2023-05-04T05:12:13.893Z,4.35
2023-05-04T05:17:18.873Z,3.20
2023-05-04T05:22:23.068Z,2.95
2023-05-04T05:27:27.624Z,3.60
2023-05-04T05:32:31.598Z,3.30
2023-05-04T05:37:35.890Z,3.45
2023-05-04T05:42:39.785Z,4.97
2023-05-04T05:47:44.008Z,4.32
2023-05-04T05:52:48.092Z,3.83
2023-05-04T05:57:52.358Z,3.42
2023-05-04T06:02:56.646Z,5.38
2023-05-04T06:08:01.149Z,4.07
2023-05-04T06:13:05.531Z,4.25
2023-05-04T06:18:09.544Z,5.07
2023-05-04T06:23:15.590Z,4.97
2023-05-04T06:28:19.468Z,3.67
2023-05-04T06:33:23.898Z,3.78
2023-05-04T06:38:27.815Z,5.38
2023-05-04T06:43:34.257Z,6.78
2023-05-04T06:48:38.273Z,4.80
2023-05-04T06:53:42.453Z,4.00
2023-05-04T06:58:46.818Z,9.02
2023-05-04T07:03:51.110Z,4.85
2023-05-04T07:08:55.186Z,5.32
2023-05-04T07:14:01.332Z,4.07
2023-05-04T07:19:05.457Z,3.97
2023-05-04T07:24:09.534Z,5.32
2023-05-04T07:29:13.538Z,5.30
2023-05-04T07:34:17.639Z,6.50
2023-05-04T07:39:21.738Z,4.22
2023-05-04T07:44:25.873Z,9.50
2023-05-04T07:49:29.869Z,9.15
2023-05-04T07:54:33.934Z,4.72
2023-05-04T07:59:37.938Z,4.43
2023-05-04T08:04:42.011Z,10.32
2023-05-04T08:09:46.122Z,8.75
2023-05-04T08:14:50.384Z,6.45
2023-05-04T08:19:54.969Z,6.97
2023-05-04T08:24:58.837Z,5.97
2023-05-04T08:30:03.040Z,7.05
2023-05-04T08:35:08.722Z,5.10
2023-05-04T08:40:13.560Z,9.73
2023-05-04T08:45:19.108Z,6.38
2023-05-04T08:50:23.316Z,5.15
2023-05-04T08:55:27.914Z,7.28
2023-05-04T09:00:33.782Z,4.10
2023-05-04T09:05:39.267Z,7.90
2023-05-04T09:10:43.213Z,7.22
2023-05-04T09:16:00.063Z,6.40
2023-05-04T09:21:04.197Z,3.20
2023-05-04T09:26:08.137Z,3.83
2023-05-04T09:31:12.546Z,7.53
2023-05-04T09:36:22.848Z,9.60
2023-05-04T09:41:34.413Z,4.65
2023-05-04T09:46:38.664Z,3.45
2023-05-04T09:51:43.751Z,6.95
2023-05-04T09:56:53.268Z,4.80
2023-05-04T10:02:02.463Z,8.23
2023-05-04T10:07:15.201Z,6.88
2023-05-04T10:12:19.219Z,10.02
2023-05-04T10:17:42.147Z,11.40
2023-05-04T10:22:49.127Z,6.53
2023-05-04T10:28:12.511Z,14.43
2023-05-04T10:33:17.308Z,7.65
2023-05-04T10:38:32.393Z,3.72
2023-05-04T10:43:36.644Z,6.13
2023-05-04T10:48:40.723Z,9.02
2023-05-04T10:53:44.980Z,7.20
2023-05-04T10:58:49.506Z,6.45
2023-05-04T11:03:54.824Z,5.15
2023-05-04T11:09:06.582Z,9.35
2023-05-04T11:14:11.944Z,4.55
2023-05-04T11:19:19.027Z,4.30
2023-05-04T11:24:22.901Z,3.53
2023-05-04T11:29:27.253Z,3.85
2023-05-04T11:34:31.171Z,5.38
2023-05-04T11:39:36.313Z,4.93
2023-05-04T11:44:42.373Z,4.00
2023-05-04T11:49:48.509Z,4.85
2023-05-04T11:54:58.650Z,6.95
2023-05-04T12:05:14.919Z,62.05
2023-05-04T12:10:35.509Z,64.57
2023-05-04T12:15:39.687Z,17.45
2023-05-04T12:20:44.236Z,22.52
2023-05-04T12:26:07.547Z,17.40
2023-05-04T12:31:11.463Z,65.30
2023-05-04T12:36:15.753Z,24.98
2023-05-04T12:41:19.609Z,27.33
2023-05-04T12:46:23.766Z,12.60
2023-05-04T12:51:27.716Z,13.68
2023-05-04T12:56:32.913Z,12.23
2023-05-04T13:01:37.350Z,12.50
2023-05-04T13:06:41.314Z,22.83
2023-05-04T13:11:45.474Z,27.73
2023-05-04T13:16:51.044Z,22.67
2023-05-04T13:21:55.374Z,21.67
2023-05-04T13:26:59.194Z,33.65
2023-05-04T13:32:03.390Z,70.30
2023-05-04T13:37:08.258Z,66.65
2023-05-04T13:42:13.789Z,25.35
2023-05-04T13:47:18.866Z,25.77
2023-05-04T13:52:22.764Z,20.98
2023-05-04T13:57:30.722Z,201.88
2023-05-04T14:02:35.733Z,154.73
2023-05-04T14:07:39.888Z,54.95
2023-05-04T14:12:44.180Z,51.47
2023-05-04T14:17:48.287Z,38.30
2023-05-04T14:22:52.177Z,100.50
2023-05-04T14:27:56.330Z,60.08
2023-05-04T14:33:00.328Z,58.80
2023-05-04T14:38:04.713Z,31.80
2023-05-04T14:43:08.518Z,38.38
2023-05-04T14:48:12.844Z,38.40
2023-05-04T14:53:17.037Z,29.15
2023-05-04T14:58:20.909Z,26.60
2023-05-04T15:03:26.887Z,43.25
2023-05-04T15:08:30.949Z,40.33
2023-05-04T15:13:35.004Z,93.40
2023-05-04T15:18:38.905Z,40.13
2023-05-04T15:23:54.192Z,64.78
2023-05-04T15:29:42.104Z,153.52
2023-05-04T15:41:31.854Z,119.00
2023-05-04T15:47:05.472Z,88.93
2023-05-04T15:52:47.863Z,49.65
2023-05-04T15:58:13.626Z,46.25
2023-05-04T16:04:00.592Z,53.42
2023-05-04T16:15:22.692Z,46.30
2023-05-04T16:21:21.786Z,32.10
2023-05-04T16:27:09.409Z,30.65
2023-05-04T16:32:40.405Z,33.92
2023-05-04T16:38:30.574Z,45.50
2023-05-04T16:43:53.783Z,33.03
2023-05-04T16:49:45.239Z,27.27
2023-05-04T16:55:11.540Z,20.65
2023-05-04T17:00:37.573Z,24.65
2023-05-04T17:12:08.222Z,12.40
2023-05-04T17:17:57.317Z,15.27
2023-05-04T17:23:29.084Z,8.85
2023-05-04T17:28:51.548Z,9.52
2023-05-04T17:34:08.824Z,16.30
2023-05-04T17:45:16.791Z,14.07
2023-05-04T17:50:36.987Z,17.33
2023-05-04T17:55:55.970Z,13.40
2023-05-04T18:01:17.056Z,13.93
2023-05-04T18:06:35.741Z,14.38
2023-05-04T18:11:59.985Z,17.33
2023-05-04T18:22:43.104Z,19.25
2023-05-04T18:28:07.332Z,19.27
2023-05-04T18:33:20.317Z,15.77
2023-05-04T18:38:45.430Z,14.00
2023-05-04T18:43:57.918Z,24.23
2023-05-04T18:49:04.899Z,27.20
2023-05-04T18:54:09.346Z,11.95
2023-05-04T18:59:13.210Z,15.30
2023-05-04T19:04:17.250Z,20.98
2023-05-04T19:09:21.474Z,12.70
2023-05-04T19:14:27.269Z,11.52
2023-05-04T19:19:32.376Z,12.93
2023-05-04T19:24:38.425Z,14.77
2023-05-04T19:29:42.422Z,16.23
2023-05-04T19:34:47.233Z,12.15
2023-05-04T19:39:51.761Z,13.13
2023-05-04T19:44:56.077Z,10.25
2023-05-04T19:50:00.003Z,19.20
2023-05-04T19:55:04.286Z,12.13
2023-05-04T20:00:10.582Z,12.23
2023-05-04T20:05:17.853Z,11.80
2023-05-04T20:10:22.292Z,12.68
2023-05-04T20:15:26.779Z,19.55
2023-05-04T20:20:30.951Z,12.40
2023-05-04T20:25:35.141Z,14.77
2023-05-04T20:30:39.422Z,16.83
2023-05-04T20:35:44.878Z,15.20
2023-05-04T20:40:50.356Z,17.23
2023-05-04T20:45:55.762Z,15.02
2023-05-04T20:51:12.847Z,16.60
2023-05-04T20:56:18.519Z,15.52
2023-05-04T21:01:22.474Z,13.77
2023-05-04T21:06:26.605Z,15.35
2023-05-04T21:11:30.672Z,14.95
2023-05-04T21:16:34.860Z,16.27
2023-05-04T21:21:41.914Z,16.92
2023-05-04T21:26:46.637Z,14.93
2023-05-04T21:31:50.851Z,16.08
2023-05-04T21:36:55.070Z,15.40
2023-05-04T21:41:59.366Z,17.02
2023-05-04T21:47:04.599Z,16.38
2023-05-04T21:52:08.852Z,14.32
2023-05-04T21:57:12.807Z,20.27
2023-05-04T22:02:16.912Z,18.77
2023-05-04T22:07:20.848Z,16.67
2023-05-04T22:12:25.080Z,18.70
2023-05-04T22:17:29.213Z,14.90
2023-05-04T22:22:33.316Z,16.45
2023-05-04T22:27:37.565Z,18.90
2023-05-04T22:32:41.821Z,18.75
2023-05-04T22:37:47.772Z,20.17
2023-05-04T22:42:51.607Z,19.95
2023-05-04T22:47:55.618Z,18.60
2023-05-04T22:52:59.931Z,18.05
2023-05-04T22:58:03.813Z,18.65
2023-05-04T23:03:08.459Z,21.45
2023-05-04T23:08:12.361Z,19.75
2023-05-04T23:13:16.662Z,22.23
2023-05-04T23:18:20.491Z,21.48
2023-05-04T23:23:24.658Z,22.17
2023-05-04T23:28:28.536Z,21.17
2023-05-04T23:33:32.375Z,22.02
2023-05-04T23:38:36.417Z,22.33
2023-05-04T23:43:40.231Z,32.42
2023-05-04T23:48:44.219Z,26.38
2023-05-04T23:53:48.395Z,28.77
2023-05-04T23:58:52.194Z,25.92
